Time;durP1;ratioP1;P1;durP2;ratioP2;P2;SDS_P1;SDS_P2;PMS_P1;PMS_P2;Temp;Humidity;BMP_temperature;BMP_pressure;BME280_temperature;BME280_humidity;BME280_pressure;Samples;Min_cycle;Max_cycle;Signal;HPM_P1;HPM_P2
2022/08/12 00:43:46;;;;;;;3.58;2.70;;;;;;;20.52;46.66;101798.06;5064571;28;20495;-71
2022/08/12 00:48:55;;;;;;;4.55;2.90;;;;;;;20.49;47.29;101797.38;5060476;28;20154;-71
2022/08/12 00:51:22;;;;;;;4.78;2.90;;;;;;;20.47;47.32;101800.06;5064294;28;20055;-71
2022/08/12 00:53:47;;;;;;;4.75;2.80;;;;;;;20.44;47.97;101801.09;5065347;28;20044;-71
2022/08/12 00:56:13;;;;;;;4.85;2.58;;;;;;;20.42;48.91;101794.16;5055599;28;20032;-72
2022/08/12 00:58:45;;;;;;;4.93;2.67;;;;;;;20.44;46.96;101803.75;5053256;28;20039;-71
2022/08/12 01:01:13;;;;;;;4.13;2.58;;;;;;;20.41;47.26;101801.25;5059542;28;20545;-72
2022/08/12 01:11:53;;;;;;;5.32;2.78;;;;;;;20.31;46.71;101798.22;5063897;28;20055;-72
2022/08/12 01:14:23;;;;;;;4.95;2.85;;;;;;;20.31;47.00;101805.31;5065323;28;20480;-71
2022/08/12 01:16:51;;;;;;;3.63;2.83;;;;;;;20.27;47.78;101801.97;5059109;28;20484;-71
2022/08/12 01:19:19;;;;;;;5.35;3.20;;;;;;;20.26;48.15;101807.34;5061862;28;20052;-72
2022/08/12 01:22:04;;;;;;;5.85;2.97;;;;;;;20.21;46.79;101802.28;5059048;28;20012;-71
2022/08/12 01:24:47;;;;;;;5.22;2.85;;;;;;;20.13;47.32;101800.03;5065265;28;20155;-71
2022/08/12 01:27:14;;;;;;;3.75;2.90;;;;;;;20.04;49.42;101797.84;5062848;28;20356;-71
2022/08/12 01:29:43;;;;;;;4.72;2.60;;;;;;;20.01;48.75;101798.88;5056755;28;20040;-71
2022/08/12 01:32:13;;;;;;;6.40;3.17;;;;;;;20.01;48.00;101801.53;5058964;28;20052;-71
2022/08/12 01:34:44;;;;;;;5.65;2.90;;;;;;;19.98;48.87;101795.53;5064098;28;20063;-71
2022/08/12 01:37:11;;;;;;;6.13;2.90;;;;;;;19.96;48.71;101795.59;5056373;28;20108;-71
2022/08/12 01:39:41;;;;;;;4.70;2.95;;;;;;;19.94;49.19;101793.97;5057373;28;20074;-72
2022/08/12 01:42:09;;;;;;;4.53;2.90;;;;;;;19.88;49.87;101794.28;5064616;28;20027;-71
2022/08/12 01:44:36;;;;;;;7.03;3.00;;;;;;;19.86;48.84;101794.34;5063867;28;20047;-71
2022/08/12 01:47:17;;;;;;;4.82;3.10;;;;;;;19.85;48.23;101790.81;5063564;28;20039;-71
2022/08/12 01:50:04;;;;;;;4.53;3.13;;;;;;;19.84;48.14;101785.63;5055140;28;20037;-71
2022/08/12 01:52:54;;;;;;;6.50;3.20;;;;;;;19.81;47.43;101788.41;5061516;28;20025;-71
2022/08/12 01:55:29;;;;;;;5.47;2.95;;;;;;;19.77;48.38;101790.38;5059652;28;20024;-71
2022/08/12 01:58:10;;;;;;;4.80;3.10;;;;;;;19.72;48.71;101795.00;5060865;28;20468;-71
2022/08/12 02:00:47;;;;;;;6.82;3.20;;;;;;;19.68;49.07;101791.69;5059331;28;20051;-71
2022/08/12 02:03:18;;;;;;;4.20;3.10;;;;;;;19.67;48.59;101797.00;5064601;28;20056;-71
2022/08/12 02:11:44;;;;;;;6.82;3.67;;;;;;;19.60;49.38;101798.25;5058066;28;20086;-71
2022/08/12 02:14:47;;;;;;;4.40;3.47;;;;;;;19.57;48.46;101788.69;5064199;28;20029;-71
2022/08/12 02:17:30;;;;;;;4.88;3.40;;;;;;;19.52;48.73;101788.91;5061635;28;20100;-71
2022/08/12 02:20:11;;;;;;;4.43;3.28;;;;;;;19.44;50.95;101788.44;5057807;28;20032;-72
2022/08/12 02:22:41;;;;;;;4.30;3.05;;;;;;;19.44;50.36;101783.16;5062228;28;20033;-71
2022/08/12 02:25:08;;;;;;;6.07;3.65;;;;;;;19.40;50.21;101782.44;5057628;28;20040;-71
2022/08/12 02:27:41;;;;;;;4.50;3.10;;;;;;;19.39;51.12;101777.25;5065566;28;20125;-71
2022/08/12 02:30:09;;;;;;;5.30;3.03;;;;;;;19.36;51.77;101787.94;5064400;28;20135;-71
2022/08/12 02:32:39;;;;;;;5.63;3.40;;;;;;;19.35;51.90;101783.59;5066816;28;20020;-72
2022/08/12 02:35:08;;;;;;;4.88;3.40;;;;;;;19.33;52.38;101782.81;5063220;28;20028;-71
2022/08/12 02:37:35;;;;;;;4.97;3.13;;;;;;;19.30;53.58;101782.97;5058307;28;20040;-72
2022/08/12 02:40:02;;;;;;;4.53;3.22;;;;;;;19.25;52.26;101786.69;5059556;28;20040;-71
2022/08/12 02:42:31;;;;;;;10.27;3.85;;;;;;;19.23;52.98;101783.25;5062262;28;20460;-71
2022/08/12 02:45:03;;;;;;;5.90;3.00;;;;;;;19.19;53.09;101776.41;5068249;28;20033;-71
2022/08/12 02:47:32;;;;;;;4.72;3.30;;;;;;;19.17;53.54;101783.53;5057293;28;20114;-71
2022/08/12 02:50:02;;;;;;;5.15;3.33;;;;;;;19.18;52.75;101784.41;5056425;28;20028;-71
2022/08/12 02:52:29;;;;;;;5.47;3.35;;;;;;;19.14;54.27;101783.69;5057448;28;20384;-72
2022/08/12 02:55:03;;;;;;;4.35;3.03;;;;;;;19.11;53.06;101778.56;5057746;28;20049;-71
2022/08/12 02:57:30;;;;;;;5.32;3.38;;;;;;;19.13;52.33;101776.69;5059912;28;20667;-71
2022/08/12 02:59:56;;;;;;;8.07;3.30;;;;;;;19.13;51.62;101776.69;5055898;28;20035;-71
2022/08/12 03:02:26;;;;;;;5.55;3.17;;;;;;;19.11;51.81;101770.66;5053467;28;20055;-71
2022/08/12 03:04:57;;;;;;;5.15;3.30;;;;;;;19.13;51.39;101768.78;5059795;28;20028;-71
2022/08/12 03:07:22;;;;;;;6.00;3.30;;;;;;;19.12;51.47;101769.72;5056329;28;20034;-71
2022/08/12 03:09:51;;;;;;;5.60;3.08;;;;;;;19.11;51.97;101766.22;5055280;28;20442;-71
2022/08/12 03:12:19;;;;;;;4.50;3.33;;;;;;;19.14;51.68;101769.66;5063693;28;20040;-71
2022/08/12 03:14:45;;;;;;;5.35;3.83;;;;;;;19.10;52.75;101766.31;5057466;28;20036;-71
2022/08/12 03:17:24;;;;;;;6.00;3.28;;;;;;;19.11;51.03;101762.75;5060276;28;20043;-71
2022/08/12 03:19:52;;;;;;;5.70;3.45;;;;;;;19.12;51.90;101769.72;5060143;28;20545;-71
2022/08/12 03:22:19;;;;;;;4.65;3.35;;;;;;;19.11;52.14;101762.75;5061534;28;20103;-71
2022/08/12 03:24:44;;;;;;;4.68;3.47;;;;;;;19.13;51.88;101762.66;5058242;28;20029;-71
2022/08/12 03:27:13;;;;;;;6.35;3.67;;;;;;;19.09;52.11;101762.81;5057715;28;20051;-71
2022/08/12 03:29:40;;;;;;;5.88;3.90;;;;;;;19.07;52.06;101761.19;5057225;28;20063;-71
2022/08/12 03:32:07;;;;;;;4.30;3.75;;;;;;;19.05;52.48;101763.88;5059359;28;20039;-71
2022/08/12 03:34:34;;;;;;;6.72;4.20;;;;;;;19.06;52.33;101770.00;5060575;28;20472;-71
2022/08/12 03:37:01;;;;;;;5.70;3.78;;;;;;;19.06;52.57;101765.56;5055703;28;20111;-71
2022/08/12 03:39:49;;;;;;;5.53;4.00;;;;;;;19.05;52.33;101757.75;5057115;28;20581;-71
2022/08/12 03:42:26;;;;;;;8.32;4.28;;;;;;;19.05;52.31;101763.88;5055787;28;20441;-71
2022/08/12 04:01:54;;;;;;;6.32;3.80;;;;;;;18.96;53.60;101764.31;5058616;28;20051;-71
2022/08/12 04:04:22;;;;;;;5.28;3.80;;;;;;;18.96;53.74;101765.16;5058814;28;20024;-70
2022/08/12 04:06:48;;;;;;;4.70;3.67;;;;;;;18.94;53.78;101766.13;5061908;28;20368;-71
2022/08/12 04:09:13;;;;;;;4.65;3.60;;;;;;;18.93;53.99;101767.94;5061531;28;20062;-71
2022/08/12 04:14:26;;;;;;;8.10;4.00;;;;;;;18.91;54.36;101771.53;5057609;28;20042;-71
2022/08/12 04:16:51;;;;;;;5.90;3.97;;;;;;;18.90;54.27;101769.81;5063648;28;20460;-71
2022/08/12 04:19:18;;;;;;;5.80;4.00;;;;;;;18.89;54.16;101768.97;5066707;28;20103;-72
2022/08/12 04:21:44;;;;;;;7.35;3.92;;;;;;;18.88;54.25;101783.09;5063678;28;20107;-71
2022/08/12 04:24:10;;;;;;;5.00;3.90;;;;;;;18.87;54.39;101776.09;5061402;28;20056;-71
2022/08/12 04:26:35;;;;;;;6.00;3.90;;;;;;;18.87;54.54;101775.25;5065257;28;20058;-71
2022/08/12 04:29:02;;;;;;;4.57;3.78;;;;;;;18.85;54.82;101772.69;5066800;28;20472;-71
2022/08/12 04:31:34;;;;;;;6.65;3.60;;;;;;;18.86;54.88;101778.81;5063818;28;20099;-71
2022/08/12 04:34:01;;;;;;;5.65;4.05;;;;;;;18.85;54.90;101772.69;5069248;28;20040;-71
2022/08/12 04:36:27;;;;;;;7.95;4.10;;;;;;;18.86;55.11;101773.56;5067805;28;20038;-71
2022/08/12 04:38:53;;;;;;;8.88;4.20;;;;;;;18.84;55.39;101773.59;5066914;28;20028;-71
2022/08/12 04:41:19;;;;;;;6.47;4.03;;;;;;;18.85;55.38;101770.03;5058071;28;20032;-71
2022/08/12 04:43:46;;;;;;;6.30;4.18;;;;;;;18.86;55.35;101776.19;5060580;28;20047;-71
2022/08/12 04:46:11;;;;;;;5.38;3.90;;;;;;;18.86;55.29;101773.56;5061802;28;20036;-71
2022/08/12 04:48:36;;;;;;;10.43;3.97;;;;;;;18.86;55.58;101777.03;5061266;28;20077;-71
2022/08/12 04:51:02;;;;;;;7.32;4.15;;;;;;;18.84;55.63;101773.59;5057110;28;20024;-71
2022/08/12 04:53:28;;;;;;;6.28;3.80;;;;;;;18.85;55.48;101775.31;5065740;28;20024;-71
2022/08/12 04:55:54;;;;;;;5.88;4.22;;;;;;;18.87;55.79;101773.47;5065533;28;20039;-71
2022/08/12 04:58:20;;;;;;;6.43;4.40;;;;;;;18.85;55.47;101763.94;5064165;28;20118;-71
2022/08/12 05:00:45;;;;;;;5.47;4.20;;;;;;;18.88;56.20;101766.41;5061341;28;20031;-71
2022/08/12 05:03:11;;;;;;;5.38;4.22;;;;;;;18.89;55.80;101771.63;5062307;28;20523;-71
2022/08/12 05:05:39;;;;;;;9.40;4.38;;;;;;;18.90;55.42;101769.81;5064460;28;20035;-71
2022/08/12 05:08:10;;;;;;;5.05;4.10;;;;;;;18.94;55.16;101776.66;5066076;28;20034;-71
2022/08/12 05:10:35;;;;;;;5.75;3.90;;;;;;;18.94;55.51;101774.94;5070951;28;20036;-70
2022/08/12 05:13:06;;;;;;;6.15;4.07;;;;;;;18.96;55.60;101780.13;5066198;28;20392;-73
2022/08/12 05:15:31;;;;;;;6.35;4.15;;;;;;;18.99;55.80;101773.84;5066985;28;20032;-71
2022/08/12 05:17:56;;;;;;;5.70;4.28;;;;;;;19.00;55.89;101776.44;5065833;28;20031;-71
2022/08/12 05:20:24;;;;;;;5.60;4.35;;;;;;;19.00;56.14;101775.56;5071266;28;20024;-70
2022/08/12 05:22:50;;;;;;;6.53;4.40;;;;;;;19.04;56.11;101779.78;5061440;28;20081;-71
2022/08/12 05:25:15;;;;;;;6.40;4.57;;;;;;;19.07;55.82;101785.75;5064032;28;20028;-71
2022/08/12 05:27:41;;;;;;;5.93;4.50;;;;;;;19.08;56.44;101778.72;5069802;28;20036;-71
2022/08/12 05:30:07;;;;;;;6.15;4.63;;;;;;;19.12;56.15;101780.28;5066430;28;20047;-71
2022/08/12 05:32:33;;;;;;;6.68;4.07;;;;;;;19.15;56.31;101780.13;5066281;28;20031;-71
2022/08/12 05:35:05;;;;;;;6.78;4.72;;;;;;;19.18;57.00;101772.06;5067769;28;20025;-71
2022/08/12 05:37:33;;;;;;;6.00;4.28;;;;;;;19.21;56.42;101779.84;5069521;28;20382;-71
2022/08/12 05:39:59;;;;;;;5.75;5.10;;;;;;;19.28;56.22;101780.41;5066759;28;20020;-71
2022/08/12 05:42:24;;;;;;;7.53;4.80;;;;;;;19.31;57.14;101789.94;5076364;28;20027;-71
2022/08/12 05:44:50;;;;;;;8.43;5.00;;;;;;;19.36;56.64;101782.66;5064084;28;20085;-71
2022/08/12 05:47:16;;;;;;;7.85;5.07;;;;;;;19.40;56.75;101784.25;5069526;28;20024;-71
2022/08/12 05:49:41;;;;;;;9.52;4.90;;;;;;;19.45;56.38;101792.78;5066084;28;20024;-71
2022/08/12 05:52:07;;;;;;;7.70;4.72;;;;;;;19.51;56.14;101796.91;5068473;28;20682;-71
2022/08/12 05:54:33;;;;;;;5.65;4.70;;;;;;;19.56;56.16;101793.13;5067471;28;20042;-71
2022/08/12 05:56:59;;;;;;;7.05;5.00;;;;;;;19.61;56.28;101800.81;5066863;28;20025;-71
2022/08/12 05:59:24;;;;;;;7.05;5.07;;;;;;;19.67;55.60;101797.88;5065744;28;20411;-71
2022/08/12 06:01:49;;;;;;;8.75;5.18;;;;;;;19.72;55.54;101792.38;5060244;28;20712;-71
2022/08/12 06:04:14;;;;;;;6.60;4.70;;;;;;;19.79;55.15;101796.44;5060457;28;21837;-71
2022/08/12 06:06:40;;;;;;;6.90;4.80;;;;;;;19.85;54.99;101796.09;5062622;28;20032;-71
2022/08/12 06:09:09;;;;;;;9.00;4.70;;;;;;;19.91;55.66;101799.41;5063358;28;20456;-71
2022/08/12 06:11:35;;;;;;;6.60;4.47;;;;;;;19.97;55.33;101799.13;5060644;28;20029;-71
2022/08/12 06:14:00;;;;;;;6.82;4.63;;;;;;;20.02;54.22;101797.06;5070669;28;20075;-71
2022/08/12 06:16:25;;;;;;;7.35;4.53;;;;;;;20.08;54.11;101802.06;5063044;28;20109;-71
2022/08/12 06:18:51;;;;;;;8.40;5.30;;;;;;;20.13;54.73;101800.03;5067473;28;20039;-71
2022/08/12 06:21:20;;;;;;;6.38;4.65;;;;;;;20.20;54.84;101805.88;5062994;28;20150;-71
2022/08/12 06:23:46;;;;;;;7.28;5.20;;;;;;;20.25;55.00;101797.69;5063091;28;20108;-71
2022/08/12 06:26:14;;;;;;;7.97;4.65;;;;;;;20.31;54.34;101802.69;5061583;28;20115;-71
2022/08/12 06:28:41;;;;;;;7.15;4.82;;;;;;;20.39;54.59;101799.63;5069272;28;20028;-71
2022/08/12 06:31:06;;;;;;;8.38;4.93;;;;;;;20.44;54.72;101803.75;5066012;28;20036;-71
2022/08/12 06:33:35;;;;;;;10.75;4.95;;;;;;;20.52;52.70;101811.28;5062322;28;20803;-71
2022/08/12 06:36:00;;;;;;;7.82;5.03;;;;;;;20.59;52.44;101811.78;5064343;28;20472;-71
2022/08/12 06:38:27;;;;;;;7.93;4.95;;;;;;;20.66;52.40;101799.09;5067920;28;20044;-71
2022/08/12 06:43:40;;;;;;;6.88;4.72;;;;;;;20.80;52.27;101799.25;5065842;28;20120;-71
2022/08/12 06:46:05;;;;;;;8.48;5.20;;;;;;;20.88;52.60;101801.47;5064728;28;20047;-71
2022/08/12 06:48:31;;;;;;;6.65;4.65;;;;;;;20.94;52.43;101795.88;5064397;28;20471;-71
2022/08/12 06:50:58;;;;;;;7.82;4.97;;;;;;;21.01;51.95;101791.94;5058979;28;20107;-71
2022/08/12 06:53:25;;;;;;;9.13;5.30;;;;;;;21.07;52.29;101791.59;5061298;28;20103;-71
2022/08/12 06:55:53;;;;;;;9.48;5.25;;;;;;;21.16;51.28;101786.75;5057678;28;20435;-71
2022/08/12 06:58:19;;;;;;;8.60;5.15;;;;;;;21.22;51.34;101778.44;5065610;28;20081;-71
2022/08/12 07:00:46;;;;;;;9.10;5.32;;;;;;;21.30;51.42;101778.88;5061796;28;20111;-71
2022/08/12 07:03:17;;;;;;;6.47;5.25;;;;;;;21.38;52.23;101771.34;5059851;28;22298;-71
2022/08/12 07:05:43;;;;;;;10.38;5.60;;;;;;;21.45;52.10;101779.78;5065407;28;20459;-71
2022/08/12 07:08:10;;;;;;;8.43;5.68;;;;;;;21.52;53.33;101772.38;5067607;28;20035;-71
2022/08/12 07:10:56;;;;;;;10.00;8.38;;;;;;;21.59;51.74;101779.00;5062177;28;20060;-71
2022/08/12 07:13:22;;;;;;;9.80;8.30;;;;;;;21.66;51.45;101788.34;5062493;28;20143;-71
2022/08/12 07:15:49;;;;;;;10.82;8.48;;;;;;;21.73;52.66;101790.63;5059450;28;20037;-71
2022/08/12 07:18:18;;;;;;;9.27;8.38;;;;;;;21.81;52.10;101791.03;5060591;28;20025;-71
2022/08/12 07:20:46;;;;;;;9.43;7.57;;;;;;;21.88;51.96;101792.38;5061710;28;20679;-71
2022/08/12 07:23:13;;;;;;;8.18;7.25;;;;;;;21.95;50.85;101793.75;5065222;28;20020;-71
2022/08/12 07:25:38;;;;;;;10.55;7.40;;;;;;;22.04;50.61;101789.69;5063594;28;20021;-71
2022/08/12 07:28:23;;;;;;;9.70;7.50;;;;;;;22.11;50.54;101799.00;5068152;28;20027;-71
2022/08/12 07:30:50;;;;;;;8.80;7.05;;;;;;;22.20;49.39;101789.63;5069525;28;20080;-71
2022/08/12 07:33:21;;;;;;;9.65;6.15;;;;;;;22.29;50.73;101796.16;5068877;28;20168;-71
2022/08/12 07:35:48;;;;;;;9.00;5.28;;;;;;;22.37;49.77;101793.06;5068029;28;20042;-71
2022/08/12 07:38:23;;;;;;;11.32;4.90;;;;;;;22.45;48.91;101798.78;5071625;28;20079;-71
2022/08/12 07:40:58;;;;;;;6.80;4.68;;;;;;;22.53;48.57;101799.16;5072661;28;20052;-71
2022/08/12 07:43:25;;;;;;;6.88;4.63;;;;;;;22.63;47.65;101809.19;5068222;28;20101;-71
2022/08/12 07:45:52;;;;;;;8.57;4.65;;;;;;;22.70;48.27;101802.59;5064527;28;20031;-71
2022/08/12 07:48:17;;;;;;;6.78;4.50;;;;;;;22.74;48.05;101799.63;5065138;28;20028;-71
2022/08/12 07:50:42;;;;;;;7.80;4.85;;;;;;;22.82;46.69;101806.25;5071760;28;20025;-71
2022/08/12 07:53:08;;;;;;;8.70;4.57;;;;;;;22.90;47.28;101801.31;5069571;28;20071;-71
2022/08/12 07:55:33;;;;;;;8.52;4.80;;;;;;;22.97;47.03;101807.09;5072603;28;20028;-71
2022/08/12 07:57:59;;;;;;;5.72;4.10;;;;;;;23.03;46.39;101807.56;5069407;28;20383;-71
2022/08/12 08:00:27;;;;;;;8.65;4.32;;;;;;;23.11;46.70;101801.75;5064541;28;20107;-71
2022/08/12 08:02:53;;;;;;;9.77;4.55;;;;;;;23.19;47.65;101803.91;5057620;28;20107;-71
2022/08/12 08:05:21;;;;;;;9.07;4.47;;;;;;;23.25;46.83;101792.94;5055732;28;20017;-71
2022/08/12 08:07:46;;;;;;;7.20;4.57;;;;;;;23.34;45.63;101799.47;5064552;28;20444;-71
2022/08/12 08:10:12;;;;;;;8.40;4.57;;;;;;;23.41;45.96;101797.25;5061020;28;20146;-71
2022/08/12 08:12:53;;;;;;;8.38;4.80;;;;;;;23.51;45.51;101800.16;5068957;28;20119;-71
2022/08/12 08:15:19;;;;;;;9.10;4.63;;;;;;;23.58;44.06;101801.44;5069464;28;20028;-71
2022/08/12 08:18:01;;;;;;;8.43;4.32;;;;;;;23.67;46.00;101810.63;5067966;28;20150;-71
2022/08/12 08:20:32;;;;;;;6.40;3.78;;;;;;;23.71;44.21;101797.06;5069498;28;20026;-71
2022/08/12 08:23:04;;;;;;;8.52;4.80;;;;;;;23.79;43.33;101812.47;5064674;28;20025;-71
2022/08/12 08:25:32;;;;;;;5.97;3.80;;;;;;;23.85;42.81;101811.22;5072727;28;20029;-71
2022/08/12 08:28:02;;;;;;;4.85;3.58;;;;;;;23.90;43.04;101807.28;5067784;28;20107;-71
2022/08/12 08:30:29;;;;;;;8.15;3.78;;;;;;;23.98;42.25;101812.13;5067444;28;20040;-71
2022/08/12 08:32:55;;;;;;;7.00;3.53;;;;;;;24.06;43.80;101812.47;5064527;28;20418;-71
2022/08/12 08:35:22;;;;;;;4.95;3.40;;;;;;;24.13;43.85;101812.91;5070705;28;20158;-71
2022/08/12 08:37:48;;;;;;;5.13;3.47;;;;;;;24.20;42.42;101818.66;5070002;28;20103;-72
2022/08/12 08:42:56;;;;;;;7.88;3.60;;;;;;;24.32;41.53;101812.47;5068863;28;20104;-71
2022/08/12 08:45:22;;;;;;;6.10;3.20;;;;;;;24.37;42.75;101814.81;5067703;28;20453;-71
2022/08/12 08:47:48;;;;;;;7.47;3.65;;;;;;;24.40;41.42;101814.59;5071603;28;20051;-71
2022/08/12 08:50:14;;;;;;;7.85;3.65;;;;;;;24.47;40.69;101815.88;5067918;28;20052;-71
2022/08/12 08:52:41;;;;;;;6.20;3.17;;;;;;;24.51;40.37;101813.84;5069983;28;20031;-71
2022/08/12 08:55:12;;;;;;;4.93;3.20;;;;;;;24.57;40.40;101809.91;5071340;28;20085;-71
2022/08/12 08:57:39;;;;;;;4.50;3.10;;;;;;;24.63;40.21;101805.00;5064475;28;20040;-71
2022/08/12 09:00:05;;;;;;;7.65;3.10;;;;;;;24.72;40.01;101808.84;5067421;28;20044;-71
2022/08/12 09:02:30;;;;;;;5.03;2.88;;;;;;;24.79;38.90;101801.28;5072238;28;20048;-71
2022/08/12 09:04:56;;;;;;;6.00;3.00;;;;;;;24.85;39.36;101803.53;5071611;28;20051;-71
2022/08/12 09:07:21;;;;;;;7.82;2.92;;;;;;;24.91;37.52;101803.09;5072127;28;20027;-72
2022/08/12 09:09:46;;;;;;;3.42;2.47;;;;;;;24.97;38.66;101810.63;5067280;28;20025;-72
2022/08/12 09:14:57;;;;;;;3.60;2.58;;;;;;;25.08;37.51;101804.53;5076082;28;20119;-71
2022/08/12 09:17:22;;;;;;;4.07;2.63;;;;;;;25.17;38.37;101803.00;5073511;28;20024;-72
2022/08/12 09:19:49;;;;;;;3.47;2.75;;;;;;;25.26;38.04;101810.34;5066328;28;20131;-72
2022/08/12 09:22:14;;;;;;;5.53;2.47;;;;;;;25.31;35.99;101805.50;5065172;28;20095;-71
2022/08/12 09:24:39;;;;;;;3.10;2.50;;;;;;;25.37;37.80;101808.69;5071979;28;20123;-71
2022/08/12 09:27:05;;;;;;;6.43;2.67;;;;;;;25.40;39.35;101803.16;5071500;28;20028;-71
2022/08/12 09:29:32;;;;;;;5.00;2.75;;;;;;;25.45;37.06;101809.84;5069272;28;20060;-71
2022/08/12 09:31:58;;;;;;;4.43;2.90;;;;;;;25.53;37.71;101803.97;5059430;28;20338;-71
2022/08/12 09:34:26;;;;;;;4.40;2.50;;;;;;;25.59;36.53;101800.84;5063575;28;20553;-72
2022/08/12 09:36:52;;;;;;;4.57;2.60;;;;;;;25.66;34.73;101797.69;5064666;28;20576;-73
2022/08/12 09:39:17;;;;;;;5.38;2.70;;;;;;;25.75;36.25;101797.03;5063892;28;20024;-73
2022/08/12 09:41:44;;;;;;;5.95;2.80;;;;;;;25.82;37.24;101795.56;5061371;28;20033;-72
2022/08/12 09:46:56;;;;;;;6.38;2.72;;;;;;;25.93;36.67;101792.09;5066830;28;20040;-72
2022/08/12 09:49:23;;;;;;;5.65;2.67;;;;;;;25.98;36.04;101789.06;5066058;28;20043;-72
2022/08/12 09:51:48;;;;;;;5.18;3.90;;;;;;;26.03;36.65;101786.91;5065272;28;20264;-71
2022/08/12 09:54:15;;;;;;;5.45;4.22;;;;;;;26.08;36.15;101782.09;5064687;28;20417;-72
2022/08/12 09:56:42;;;;;;;6.35;4.32;;;;;;;26.13;37.01;101779.94;5066108;28;20717;-72
2022/08/12 09:59:08;;;;;;;4.88;3.65;;;;;;;26.21;36.38;101772.19;5065145;28;20036;-72
2022/08/12 10:01:37;;;;;;;5.47;3.72;;;;;;;26.29;35.89;101776.94;5057616;28;20032;-72
2022/08/12 10:04:09;;;;;;;5.72;3.65;;;;;;;26.37;34.09;101781.66;5062861;28;20096;-72
2022/08/12 10:06:36;;;;;;;6.55;3.17;;;;;;;26.43;34.29;101777.66;5058285;28;20033;-72
2022/08/12 10:09:02;;;;;;;3.45;3.00;;;;;;;26.47;34.86;101771.97;5057784;28;20436;-72
2022/08/12 10:14:11;;;;;;;4.60;2.97;;;;;;;26.58;35.32;101765.75;5063465;28;20075;-73
2022/08/12 10:16:42;;;;;;;4.32;3.13;;;;;;;26.63;34.08;101760.09;5061789;28;20064;-72
2022/08/12 10:19:07;;;;;;;;;;;;;;;26.69;35.98;101761.41;5063440;28;20032;-72
2022/08/12 10:21:37;;;;;;;6.82;3.00;;;;;;;26.72;33.88;101759.34;5063318;28;19934;-73
2022/08/12 10:24:05;;;;;;;7.13;3.22;;;;;;;26.79;35.93;101760.59;5061831;28;20306;-72
2022/08/12 10:32:02;;;;;;;4.43;3.35;;;;;;;26.91;31.30;101752.53;5059937;28;20043;-72
2022/08/12 10:34:28;;;;;;;4.35;3.30;;;;;;;26.94;32.56;101746.97;5058562;28;20119;-72
2022/08/12 10:36:57;;;;;;;4.40;3.35;;;;;;;26.98;32.81;101748.41;5059956;28;20111;-72
2022/08/12 10:39:25;;;;;;;3.40;2.60;;;;;;;27.00;31.72;101735.75;5060081;28;20046;-74
2022/08/12 10:44:35;;;;;;;3.95;2.70;;;;;;;27.05;32.17;101728.22;5059197;28;20044;-72
2022/08/12 10:47:02;;;;;;;5.93;2.50;;;;;;;27.08;32.08;101727.97;5064440;28;20025;-72
2022/08/12 10:49:33;;;;;;;5.13;2.70;;;;;;;27.15;32.13;101722.13;5065118;28;20137;-72
2022/08/12 10:52:00;;;;;;;2.90;2.30;;;;;;;27.19;30.54;101726.22;5063984;28;20024;-72
2022/08/12 10:54:26;;;;;;;4.55;2.58;;;;;;;27.19;30.91;101721.75;5065799;28;20076;-72
2022/08/12 10:56:52;;;;;;;7.88;4.47;;;;;;;27.22;31.31;101724.16;5064450;28;20024;-71
2022/08/12 10:59:20;;;;;;;4.70;4.05;;;;;;;27.25;30.96;101723.06;5063492;28;20024;-72
2022/08/12 11:01:46;;;;;;;4.82;3.95;;;;;;;27.25;30.42;101710.53;5062977;28;20043;-72
2022/08/12 11:04:12;;;;;;;4.43;4.03;;;;;;;27.31;31.71;101708.34;5062864;28;20509;-72
2022/08/12 11:06:46;;;;;;;5.95;4.03;;;;;;;27.36;31.61;101714.16;5062372;28;20151;-72
2022/08/12 11:09:32;;;;;;;5.03;4.40;;;;;;;27.43;31.19;101699.28;5062674;28;20028;-72
2022/08/12 11:12:01;;;;;;;4.68;3.88;;;;;;;27.46;30.29;101709.75;5062347;28;20024;-74
2022/08/12 11:14:27;;;;;;;4.55;3.92;;;;;;;27.45;30.62;101696.50;5064814;28;20038;-72
2022/08/12 11:17:13;;;;;;;5.28;4.47;;;;;;;27.46;32.15;101692.88;5063481;28;20040;-72
2022/08/12 11:19:39;;;;;;;4.13;3.80;;;;;;;27.50;31.30;101694.31;5062128;28;20052;-72
2022/08/12 11:22:07;;;;;;;6.07;4.30;;;;;;;27.54;31.07;101693.91;5063861;28;20028;-72
2022/08/12 11:24:33;;;;;;;5.18;4.10;;;;;;;27.59;30.16;101685.50;5063304;28;20564;-72
2022/08/12 11:27:07;;;;;;;6.50;3.90;;;;;;;27.64;30.31;101687.78;5064342;28;20510;-72
2022/08/12 11:29:33;;;;;;;5.25;2.50;;;;;;;27.64;29.70;101693.97;5063852;28;20044;-72
2022/08/12 11:31:58;;;;;;;5.10;2.63;;;;;;;27.63;30.30;101686.94;5063893;28;20038;-71
2022/08/12 11:34:24;;;;;;;3.25;2.33;;;;;;;27.65;30.85;101682.31;5064237;28;20024;-72
2022/08/12 11:36:50;;;;;;;4.97;2.50;;;;;;;27.68;28.58;101686.53;5057666;28;20106;-72
2022/08/12 11:39:16;;;;;;;3.75;2.60;;;;;;;27.69;28.98;101682.88;5059189;28;20105;-72
2022/08/12 11:41:41;;;;;;;8.27;2.78;;;;;;;27.72;29.37;101672.78;5058669;28;20114;-72
2022/08/12 11:44:06;;;;;;;6.30;2.53;;;;;;;27.79;29.49;101672.25;5054749;28;20029;-72
2022/08/12 11:46:36;;;;;;;6.10;2.38;;;;;;;27.82;30.14;101669.31;5060237;28;20400;-72
2022/08/12 11:49:02;;;;;;;5.55;2.30;;;;;;;27.85;28.52;101663.69;5058261;28;20077;-73
2022/08/12 11:51:28;;;;;;;3.35;2.30;;;;;;;27.88;28.17;101668.75;5058169;28;20478;-72
2022/08/12 11:53:53;;;;;;;3.88;2.30;;;;;;;27.90;28.64;101669.47;5060173;28;20088;-72
2022/08/12 11:56:19;;;;;;;4.03;2.60;;;;;;;27.94;29.65;101660.22;5057393;28;20085;-72
2022/08/12 11:58:44;;;;;;;4.55;2.78;;;;;;;27.97;29.30;101662.63;5059797;28;20120;-72
2022/08/12 12:01:09;;;;;;;8.50;2.75;;;;;;;28.00;29.87;101654.34;5054683;28;20032;-72
2022/08/12 12:03:34;;;;;;;4.00;2.55;;;;;;;28.06;28.71;101655.63;5055231;28;20475;-72
2022/08/12 12:06:00;;;;;;;4.38;2.45;;;;;;;28.10;29.15;101650.88;5055126;28;20027;-72
2022/08/12 12:08:26;;;;;;;3.78;2.47;;;;;;;28.13;28.28;101661.31;5062347;28;20120;-72
2022/08/12 12:10:53;;;;;;;4.32;2.60;;;;;;;28.12;28.49;101651.59;5059484;28;20077;-72
2022/08/12 12:13:19;;;;;;;3.53;2.45;;;;;;;28.10;29.18;101646.38;5064463;28;20729;-72
2022/08/12 12:15:46;;;;;;;6.53;2.90;;;;;;;28.12;28.95;101649.75;5058985;28;20029;-72
2022/08/12 12:18:25;;;;;;;9.35;2.92;;;;;;;28.15;29.41;101637.94;5061618;28;20036;-72
2022/08/12 12:20:52;;;;;;;8.10;2.88;;;;;;;28.17;28.70;101644.03;5057972;28;20056;-72
2022/08/12 12:23:18;;;;;;;6.10;2.70;;;;;;;28.21;30.75;101649.94;5056429;28;20024;-72
2022/08/12 12:25:43;;;;;;;3.88;2.88;;;;;;;28.23;28.39;101648.81;5060648;28;20041;-72
2022/08/12 12:28:09;;;;;;;5.22;2.72;;;;;;;28.25;28.44;101641.50;5066337;28;20483;-72
2022/08/12 12:30:35;;;;;;;4.82;2.83;;;;;;;28.29;28.87;101647.41;5063492;28;20616;-72
2022/08/12 12:33:00;;;;;;;3.65;2.58;;;;;;;28.31;28.65;101643.63;5060268;28;20044;-72
2022/08/12 12:35:25;;;;;;;5.63;2.92;;;;;;;28.34;28.69;101636.31;5064834;28;20035;-72
2022/08/12 12:37:57;;;;;;;6.47;2.70;;;;;;;28.30;27.95;101633.91;5066445;28;20039;-72
2022/08/12 12:40:24;;;;;;;5.80;2.80;;;;;;;28.31;28.74;101630.25;5063004;28;20028;-72
2022/08/12 12:42:49;;;;;;;4.25;2.72;;;;;;;28.31;28.40;101622.22;5060126;28;20028;-72
2022/08/12 12:45:15;;;;;;;4.43;2.70;;;;;;;28.35;28.07;101619.28;5060309;28;20837;-72
2022/08/12 12:48:01;;;;;;;7.28;2.70;;;;;;;28.39;29.18;101621.53;5061585;28;20177;-72
2022/08/12 12:50:29;;;;;;;7.40;2.72;;;;;;;28.44;28.13;101615.75;5062627;28;20149;-72
2022/08/12 12:52:55;;;;;;;3.90;2.60;;;;;;;28.47;28.03;101610.97;5061672;28;20044;-72
2022/08/12 12:55:21;;;;;;;4.15;2.58;;;;;;;28.48;27.90;101609.16;5060580;28;20017;-72
2022/08/12 12:57:47;;;;;;;3.95;2.53;;;;;;;28.49;28.76;101605.50;5061069;28;20639;-72
2022/08/12 13:00:13;;;;;;;3.60;2.50;;;;;;;28.50;28.61;101607.19;5058639;28;20037;-72
2022/08/12 13:02:39;;;;;;;3.38;2.60;;;;;;;28.51;28.09;101606.22;5063315;28;20030;-73
2022/08/12 13:05:06;;;;;;;4.55;2.50;;;;;;;28.54;28.07;101597.88;5061133;28;20395;-72
2022/08/12 13:07:40;;;;;;;6.25;2.63;;;;;;;28.60;27.93;101594.66;5060863;28;20121;-73
2022/08/12 13:10:06;;;;;;;4.55;2.60;;;;;;;28.65;26.52;101588.03;5057034;28;20439;-72